This is the latest recevied weather packets stored in our database for station/object NUUKSIO. If no packets are shown the sender has not sent any weather packets the latest 1 day(s).
| Time | Temp. | Humidity | Pressure | Rain* | Wind** | Luminosity | Snow |
|---|---|---|---|---|---|---|---|
| 1836274170 | 13.89° C | 99% | 1009 hPa | 0 mm | 2.68 m/s, 177° | - | - |
| 1778040440 | 0° C | 94% | 1011.4 hPa | 0 mm | 1.79 m/s, 263° | - | - |
| 1778039240 | -0.56° C | 97% | 1011.2 hPa | 0 mm | 1.34 m/s, 248° | - | - |
| 1778038040 | -1.11° C | 98% | 1011 hPa | 0 mm | 1.79 m/s, 263° | - | - |
| 1778036840 | -1.67° C | 97% | 1010.9 hPa | 0 mm | 2.24 m/s, 269° | - | - |
| 1778035640 | -1.67° C | 97% | 1010.7 hPa | 0 mm | 1.34 m/s, 255° | - | - |
| 1778034440 | -1.67° C | 97% | 1010.5 hPa | 0 mm | 1.79 m/s, 264° | - | - |
| 1778033240 | -1.67° C | 96% | 1010.3 hPa | 0 mm | 1.79 m/s, 271° | - | - |
| 1778032040 | -1.67° C | 96% | 1010.2 hPa | 0 mm | 1.79 m/s, 254° | - | - |
| 1778030840 | -1.67° C | 96% | 1010.1 hPa | 0 mm | 1.34 m/s, 256° | - | - |
| 1778029640 | -1.67° C | 95% | 1010 hPa | 0 mm | 1.79 m/s, 265° | - | - |
| 1778028439 | -1.67° C | 94% | 1009.8 hPa | 0 mm | 1.34 m/s, 261° | - | - |
| 1778027239 | -1.11° C | 92% | 1009.6 hPa | 0 mm | 1.79 m/s, 266° | - | - |
| 1778026039 | -1.11° C | 92% | 1009.6 hPa | 0 mm | 1.79 m/s, 268° | - | - |
| 1778024839 | -0.56° C | 90% | 1009.4 hPa | 0 mm | 1.79 m/s, 265° | - | - |
| 1778023640 | -0.56° C | 88% | 1009.3 hPa | 0 mm | 1.79 m/s, 261° | - | - |
| 1778022439 | 0° C | 86% | 1009.1 hPa | 0 mm | 1.79 m/s, 268° | - | - |
| 1778021239 | 0° C | 85% | 1009 hPa | 0 mm | 2.24 m/s, 268° | - | - |
| 1778020039 | 0.56° C | 82% | 1008.9 hPa | 0 mm | 1.79 m/s, 272° | - | - |
| 1778018839 | 1.11° C | 82% | 1008.8 hPa | 0 mm | 1.79 m/s, 265° | - | - |
| 1778017639 | 1.11° C | 82% | 1008.7 hPa | 0 mm | 2.68 m/s, 262° | - | - |
| 1778016439 | 1.11° C | 80% | 1008.5 hPa | 0 mm | 2.24 m/s, 250° | - | - |
| 1778015239 | 1.11° C | 78% | 1008.3 hPa | 0 mm | 1.79 m/s, 254° | - | - |
| 1778014039 | 1.67° C | 75% | 1008 hPa | 0 mm | 1.79 m/s, 257° | - | - |
| 1778012839 | 2.22° C | 73% | 1007.8 hPa | 0 mm | 1.79 m/s, 256° | - | - |
* Rain latest hour (hover to see other rain measurements)
** Current wind speed in m/s (hover to see current wind gust speed)